Eudora, Kansas
Current Conditions -  °F | °C
As of 1:52 PM on Friday 31 Oct 2014 (Local Time) from KLWC Reporting Station
Clear Clear  
Wind Chill: 41°   Ceiling: Unl
Heat Index: 45°   Visibility: 10mi
Dew Point: 18°   Wind: 8mph
Humidity: 34%   Direction: 360°N
Pressure: 30.49"   Gusts: 20mph
Location:  38.94°N, 95.1°W
Report Text: KLWC 311852Z AUTO 36007G17KT 10SM CLR 07/M08 A3049 RMK AO2 SLP326 T00721078
Loading
Personal Weather Stations






























Interactive Weather Map
Tropical Storm Tracking
New forecast layout! Learn more

10-Day Weather Forecast

Advertisements
Track Severe Weather on mobile